Dar Mlodziezy — SQLZ — position and weather

sailwx.info

Track history (hours):
 
Tides and Currents Weather Stations Pressure Air Temp Water Temp Dewpoint Dewpoint Depression Visibility Wind Speed Wind Dir Waves Ship Positions

Dar Mlodziezy

Training ship for Gdynia Maritime University, Poland.

Ship's website: http://www.am.gdynia.pl/armator/darmlodziezy.php

Last reported at 2019-Aug-24 19:55 UTC. Time now 2019-Aug-24 20:22 UTC.
Position N 54°31' E 018°34'.

Length 95 m; beam 14 m.

Type: Sailing vessel. MMSI: 261148000.

Date/timePositionNaut miles runAvg speedWind from/ knotsBaromVisibWave heightAir tempDewpointWater temp
2019-Aug-24 19:55N 54°31' E 018°34'0 0.0
2019-Aug-24 19:25N 54°31' E 018°34'0 0.0
2019-Aug-24 18:58N 54°31' E 018°34'0 0.0
2019-Aug-24 18:28N 54°31' E 018°34'0 0.0
2019-Aug-24 17:58N 54°31' E 018°34'0 0.0
2019-Aug-24 17:28N 54°31' E 018°34'0 0.0
2019-Aug-24 16:55N 54°31' E 018°34'0 0.0
2019-Aug-24 16:25N 54°31' E 018°34'0 0.0
2019-Aug-24 15:58N 54°31' E 018°34'0 0.0
2019-Aug-24 15:28N 54°31' E 018°34'0 0.0
2019-Aug-24 14:58N 54°31' E 018°34'0 0.0
2019-Aug-24 14:28N 54°31' E 018°34'0 0.0
2019-Aug-24 13:58N 54°31' E 018°34'0 0.0
2019-Aug-24 13:25N 54°31' E 018°34'0 0.0
2019-Aug-24 12:58N 54°31' E 018°34'0 0.0
2019-Aug-24 12:28N 54°31' E 018°34'0 0.0
2019-Aug-24 11:55N 54°31' E 018°34'0 0.0
2019-Aug-24 11:28N 54°31' E 018°34'0 0.0
2019-Aug-24 10:58N 54°31' E 018°34'0 0.0
2019-Aug-24 10:28N 54°31' E 018°34'0 0.0
2019-Aug-24 09:58N 54°31' E 018°34'0 0.0
2019-Aug-24 09:28N 54°31' E 018°34'0 0.0
2019-Aug-24 08:58N 54°31' E 018°34'0 0.0
2019-Aug-24 08:28N 54°31' E 018°34'0 0.0
2019-Aug-24 07:58N 54°31' E 018°34'0 0.0
2019-Aug-24 07:25N 54°31' E 018°34'0 0.0
2019-Aug-24 06:58N 54°31' E 018°34'0 0.0
2019-Aug-24 06:28N 54°31' E 018°34'0 0.0
2019-Aug-24 05:58N 54°31' E 018°34'0 0.0
2019-Aug-24 05:28N 54°31' E 018°34'0 0.1
2019-Aug-24 05:00N 54°31' E 018°34'2 4.7
2019-Aug-24 04:30N 54°32' E 018°37'3 5.1
2019-Aug-24 04:00N 54°32' E 018°42'3 7.0
2019-Aug-24 03:30N 54°33' E 018°48'4 7.1
2019-Aug-24 03:00N 54°35' E 018°52'3 6.3
2019-Aug-24 02:30N 54°38' E 018°54'3 5.6
2019-Aug-24 02:00N 54°41' E 018°56'3 5.9
2019-Aug-24 01:30N 54°43' E 018°52'3 6.0
2019-Aug-24 01:00N 54°45' E 018°49'3 6.0
2019-Aug-24 00:30N 54°48' E 018°46'3 6.1
2019-Aug-24 00:00N 54°50' E 018°42'3 6.7
2019-Aug-23 23:30N 54°53' E 018°39'3 6.8
2019-Aug-23 23:00N 54°55' E 018°35'4 7.3
2019-Aug-23 22:30N 54°58' E 018°30'3 5.4
2019-Aug-23 22:01N 54°60' E 018°28'0 0.4
2019-Aug-23 21:30N 54°60' E 018°28'0 0.8
2019-Aug-23 20:57N 54°59' E 018°28'0 0.7
2019-Aug-23 20:19N 54°59' E 018°29'0 0.7
2019-Aug-23 19:53N 54°59' E 018°29'0 0.8
2019-Aug-23 19:30N 54°58' E 018°29'0 0.9
2019-Aug-23 19:00N 54°58' E 018°29'0 0.6
2019-Aug-23 18:30N 54°58' E 018°29'0 0.7
2019-Aug-23 18:00N 54°57' E 018°29'0 0.8
2019-Aug-23 17:30N 54°57' E 018°30'0 0.7
2019-Aug-23 17:00N 54°57' E 018°30'0 0.6
2019-Aug-23 16:30N 54°56' E 018°30'0 0.7
2019-Aug-23 16:00N 54°56' E 018°29'0 0.9
2019-Aug-23 15:30N 54°56' E 018°29'0 0.7
2019-Aug-23 15:00N 54°55' E 018°29'0 0.6
2019-Aug-23 14:30N 54°55' E 018°29'0 0.7
2019-Aug-23 14:00N 54°55' E 018°29'0 0.7
2019-Aug-23 13:30N 54°54' E 018°29'0 0.7
2019-Aug-23 13:00N 54°54' E 018°29'0 0.7
2019-Aug-23 12:30N 54°53' E 018°30'0 0.9
2019-Aug-23 12:00N 54°53' E 018°30'0 0.9
2019-Aug-23 11:30N 54°53' E 018°30'0 0.8
2019-Aug-23 11:00N 54°52' E 018°30'0 0.9
2019-Aug-23 10:30N 54°52' E 018°30'0 0.8
2019-Aug-23 10:00N 54°51' E 018°29'1 1.6
2019-Aug-23 09:30N 54°52' E 018°28'2 3.1
2019-Aug-23 09:00N 54°52' E 018°25'2 3.4
2019-Aug-23 08:30N 54°53' E 018°23'2 3.8
2019-Aug-23 08:00N 54°54' E 018°20'2 4.0
2019-Aug-23 07:30N 54°55' E 018°17'3 4.9
2019-Aug-23 06:57N 54°55' E 018°12'3 5.5
2019-Aug-23 06:23N 54°55' E 018°07'3 5.1
2019-Aug-23 05:42N 54°55' E 018°00'2 5.5
2019-Aug-23 05:25N 54°56' E 017°58'3 6.0
2019-Aug-23 04:53N 54°56' E 017°52'5 6.4
2019-Aug-23 04:03N 54°56' E 017°43'0 6.8
2019-Aug-23 04:00N 54°56' E 017°42'3 6.6
2019-Aug-23 03:30N 54°56' E 017°37'3 6.1
2019-Aug-23 03:00N 54°56' E 017°31'3 6.1
2019-Aug-23 02:30N 54°57' E 017°26'3 5.8
2019-Aug-23 02:00N 54°57' E 017°21'3 6.2
2019-Aug-23 01:30N 54°57' E 017°16'3 6.4
2019-Aug-23 01:00N 54°57' E 017°10'3 5.9
2019-Aug-23 00:30N 54°57' E 017°05'3 6.3
2019-Aug-23 00:00N 54°56' E 016°59'3 6.2
2019-Aug-22 23:30N 54°56' E 016°54'3 5.7
2019-Aug-22 23:00N 54°56' E 016°49'3 5.3
2019-Aug-22 22:30N 54°56' E 016°45'1 1.8
2019-Aug-22 22:00N 54°55' E 016°44'1 2.7
2019-Aug-22 21:30N 54°55' E 016°46'2 3.2
2019-Aug-22 21:00N 54°55' E 016°49'2 3.6
2019-Aug-22 20:30N 54°55' E 016°52'2 3.7
2019-Aug-22 20:00N 54°56' E 016°55'2 4.2
2019-Aug-22 19:30N 54°56' E 016°58'3 5.0
2019-Aug-22 19:00N 54°56' E 017°03'3 5.3
2019-Aug-22 18:30N 54°57' E 017°07'3 5.6
2019-Aug-22 18:00N 54°57' E 017°12'6 5.4
2019-Aug-22 16:59N 54°58' E 017°22'62 1.6
2019-Aug-21 02:48N 55°49' E 018°23'0 0.5
2019-Aug-21 02:29N 55°49' E 018°23'0 0.5
2019-Aug-21 01:42N 55°49' E 018°22'0 0.5
2019-Aug-21 00:59N 55°49' E 018°21'0 0.5
2019-Aug-21 00:30N 55°49' E 018°21'0 0.5
2019-Aug-21 00:00N 55°49' E 018°20'0 0.5
2019-Aug-20 23:30N 55°49' E 018°20'0 0.5
2019-Aug-20 23:00N 55°49' E 018°20'0 0.6
2019-Aug-20 22:30N 55°49' E 018°19'0 0.6
2019-Aug-20 22:00N 55°49' E 018°19'0 0.6
2019-Aug-20 21:30N 55°48' E 018°19'0 0.6
2019-Aug-20 20:51N 55°48' E 018°19'0 0.6
2019-Aug-20 20:30N 55°48' E 018°19'0 0.6
2019-Aug-20 19:59N 55°47' E 018°18'1 1.8
2019-Aug-20 19:29N 55°46' E 018°18'1 1.8
2019-Aug-20 18:59N 55°46' E 018°19'1 1.5
2019-Aug-20 18:30N 55°45' E 018°20'1 2.5
2019-Aug-20 18:00N 55°44' E 018°22'1 2.6
2019-Aug-20 17:29N 55°44' E 018°24'9 2.0
2019-Aug-20 12:56N 55°37' E 018°35'6 2.6
2019-Aug-20 10:30N 55°32' E 018°41'1 2.6
2019-Aug-20 10:00N 55°31' E 018°43'0 0.2
2019-Aug-20 08:42N 55°31' E 018°43'1 4.2
2019-Aug-20 08:30N 55°31' E 018°41'2 3.7
2019-Aug-20 07:57N 55°32' E 018°38'1 3.4
2019-Aug-20 07:30N 55°33' E 018°36'2 3.6
2019-Aug-20 07:00N 55°34' E 018°33'2 3.7
2019-Aug-20 06:30N 55°35' E 018°31'2 4.1
2019-Aug-20 06:00N 55°36' E 018°28'2 3.9
2019-Aug-20 05:28N 55°38' E 018°25'6 3.4
2019-Aug-20 03:52N 55°42' E 018°19'3 3.4
2019-Aug-20 03:01N 55°44' E 018°15'0 3.6
2019-Aug-20 02:58N 55°44' E 018°15'2 3.5
2019-Aug-20 02:24N 55°46' E 018°13'2 3.4
2019-Aug-20 01:57N 55°47' E 018°12'2 4.0
2019-Aug-20 01:23N 55°49' E 018°11'51 1.9
2019-Aug-18 22:23N 54°58' E 018°19'2 3.4
2019-Aug-18 21:54N 54°57' E 018°22'1 3.7
2019-Aug-18 21:30N 54°56' E 018°24'2 4.6
2019-Aug-18 21:00N 54°55' E 018°27'2 4.4
2019-Aug-18 20:30N 54°53' E 018°29'2 5.0
2019-Aug-18 20:00N 54°52' E 018°33'2 4.4
2019-Aug-18 19:30N 54°51' E 018°36'2 3.8
2019-Aug-18 19:00N 54°50' E 018°39'2 4.2
2019-Aug-18 18:30N 54°48' E 018°42'2 4.2
2019-Aug-18 18:00N 54°47' E 018°44'3 5.2
2019-Aug-18 17:30N 54°45' E 018°48'3 5.7
2019-Aug-18 17:00N 54°43' E 018°52'3 5.8
2019-Aug-18 16:30N 54°41' E 018°56'3 6.5
2019-Aug-18 16:00N 54°38' E 018°56'4 8.7
2019-Aug-18 15:30N 54°34' E 018°52'4 8.2
2019-Aug-18 15:00N 54°32' E 018°47'4 7.8
2019-Aug-18 14:30N 54°32' E 018°40'3 5.3
2019-Aug-18 13:58N 54°31' E 018°35'0 0.1
2019-Aug-18 13:28N 54°31' E 018°35'0 0.0
2019-Aug-18 12:58N 54°31' E 018°35'0 0.0
2019-Aug-18 12:28N 54°31' E 018°35'0 0.1
2019-Aug-18 11:58N 54°31' E 018°35'0 0.0
2019-Aug-18 11:28N 54°31' E 018°35'0 0.0
2019-Aug-18 10:58N 54°31' E 018°35'0 0.0
2019-Aug-18 10:28N 54°31' E 018°35'0 0.0
2019-Aug-18 09:58N 54°31' E 018°35'0 0.0
2019-Aug-18 09:28N 54°31' E 018°35'0 0.0
2019-Aug-18 08:58N 54°31' E 018°35'0 0.0
2019-Aug-18 08:28N 54°31' E 018°35'0 0.0
2019-Aug-18 07:58N 54°31' E 018°35'0 0.0
2019-Aug-18 06:58N 54°31' E 018°35'0 0.0
2019-Aug-18 06:28N 54°31' E 018°35'0 0.0
2019-Aug-18 05:58N 54°31' E 018°35'0 0.0
2019-Aug-18 05:28N 54°31' E 018°35'0 0.0
2019-Aug-18 04:58N 54°31' E 018°35'0 0.0
2019-Aug-18 04:28N 54°31' E 018°35'0 0.0
2019-Aug-18 03:58N 54°31' E 018°35'0 0.0
2019-Aug-18 03:28N 54°31' E 018°35'0 0.0
2019-Aug-18 02:58N 54°31' E 018°35'0 0.0
2019-Aug-18 02:28N 54°31' E 018°35'0 0.0
2019-Aug-18 01:58N 54°31' E 018°35'0 0.0
2019-Aug-18 01:28N 54°31' E 018°35'0 0.0
2019-Aug-18 00:55N 54°31' E 018°35'0 0.0
2019-Aug-18 00:28N 54°31' E 018°35'0 0.0
2019-Aug-17 23:58N 54°31' E 018°35'0 0.0
2019-Aug-17 23:28N 54°31' E 018°35'0 0.0
2019-Aug-17 22:58N 54°31' E 018°35'0 0.0
2019-Aug-17 22:28N 54°31' E 018°35'0 0.0
2019-Aug-17 21:58N 54°31' E 018°35'0 0.0
2019-Aug-17 21:28N 54°31' E 018°35'0 0.0
2019-Aug-17 20:58N 54°31' E 018°35'0 0.0
2019-Aug-17 20:28N 54°31' E 018°35'0 0.0
2019-Aug-17 19:58N 54°31' E 018°35'0 0.0
2019-Aug-17 19:28N 54°31' E 018°35'0 0.0
2019-Aug-17 18:58N 54°31' E 018°35'0 0.0
2019-Aug-17 18:28N 54°31' E 018°35'0 0.0
2019-Aug-17 17:28N 54°31' E 018°35'0 0.0
2019-Aug-17 16:58N 54°31' E 018°35'0 0.0
2019-Aug-17 16:28N 54°31' E 018°35'0 0.0
2019-Aug-17 15:58N 54°31' E 018°35'0 0.0
2019-Aug-17 15:28N 54°31' E 018°35'0 0.0
2019-Aug-17 14:58N 54°31' E 018°35'0 0.0
2019-Aug-17 14:28N 54°31' E 018°35'0 0.0
2019-Aug-17 13:58N 54°31' E 018°35'0 0.0
2019-Aug-17 13:28N 54°31' E 018°35'0 0.0
2019-Aug-17 12:58N 54°31' E 018°35'0 0.0
2019-Aug-17 12:28N 54°31' E 018°35'0 0.0
2019-Aug-17 11:58N 54°31' E 018°35'0 0.0
2019-Aug-17 11:28N 54°31' E 018°35'0 0.0
2019-Aug-17 10:58N 54°31' E 018°35'0 0.0
2019-Aug-17 10:28N 54°31' E 018°35'0 0.1
2019-Aug-17 09:58N 54°31' E 018°35'0 0.0
2019-Aug-17 09:28N 54°31' E 018°35'0 0.0
2019-Aug-17 08:58N 54°31' E 018°35'0 0.0
2019-Aug-17 08:28N 54°31' E 018°35'0 0.0
2019-Aug-17 07:58N 54°31' E 018°35'0 0.0
2019-Aug-17 07:25N 54°31' E 018°35'0 0.1
2019-Aug-17 06:58N 54°31' E 018°35'0 0.0
2019-Aug-17 06:28N 54°31' E 018°35'0 0.0
2019-Aug-17 05:58N 54°31' E 018°35'0 0.0
2019-Aug-17 05:28N 54°31' E 018°35'0 0.0
2019-Aug-17 04:58N 54°31' E 018°35'0 0.0
2019-Aug-17 04:28N 54°31' E 018°35'0 0.0
2019-Aug-17 03:58N 54°31' E 018°35'0 0.0
2019-Aug-17 03:28N 54°31' E 018°35'0 0.0
2019-Aug-17 02:58N 54°31' E 018°35'0 0.0
2019-Aug-17 02:28N 54°31' E 018°35'0 0.0
2019-Aug-17 01:58N 54°31' E 018°35'0 0.0
2019-Aug-17 01:28N 54°31' E 018°35'0 0.0
2019-Aug-17 00:58N 54°31' E 018°35'0 0.0
2019-Aug-17 00:28N 54°31' E 018°35'0 0.0
2019-Aug-16 23:58N 54°31' E 018°35'0 0.0
2019-Aug-16 23:28N 54°31' E 018°35'0 0.0
2019-Aug-16 22:58N 54°31' E 018°35'0 0.0
2019-Aug-16 22:28N 54°31' E 018°35'0 0.0
2019-Aug-16 21:58N 54°31' E 018°35'0 0.0
2019-Aug-16 21:28N 54°31' E 018°35'0 0.0
2019-Aug-16 20:58N 54°31' E 018°35'0 0.0
2019-Aug-16 20:28N 54°31' E 018°35'0 0.0
2019-Aug-16 19:55N 54°31' E 018°35'0 0.1
2019-Aug-16 19:28N 54°31' E 018°35'0 0.0
2019-Aug-16 18:55N 54°31' E 018°35'0 0.0
2019-Aug-16 18:25N 54°31' E 018°35'0 0.0
2019-Aug-16 17:58N 54°31' E 018°35'0 0.1
2019-Aug-16 17:25N 54°31' E 018°35'0 1.0
2019-Aug-16 17:00N 54°31' E 018°36'2 4.5
2019-Aug-16 16:30N 54°32' E 018°39'3 5.2
2019-Aug-16 16:00N 54°32' E 018°44'3 5.4
2019-Aug-16 15:30N 54°33' E 018°48'3 6.7
2019-Aug-16 15:00N 54°35' E 018°52'4 7.2
2019-Aug-16 14:30N 54°39' E 018°55'3 5.6
2019-Aug-16 14:00N 54°41' E 018°53'4 7.3
2019-Aug-16 13:30N 54°43' E 018°48'4 7.1
2019-Aug-16 13:00N 54°45' E 018°43'4 7.3
2019-Aug-16 12:30N 54°47' E 018°38'4 7.4
2019-Aug-16 12:00N 54°49' E 018°32'3 5.4
2019-Aug-16 11:30N 54°51' E 018°28'1 1.7
2019-Aug-16 11:00N 54°51' E 018°27'2 3.5
2019-Aug-16 10:30N 54°52' E 018°24'1 2.9
2019-Aug-16 10:00N 54°53' E 018°22'1 2.0
2019-Aug-16 09:30N 54°53' E 018°21'1 2.1
2019-Aug-16 08:56N 54°54' E 018°19'1 3.0
2019-Aug-16 08:26N 54°54' E 018°17'2 3.4
2019-Aug-16 07:54N 54°55' E 018°13'2 3.8
2019-Aug-16 07:30N 54°55' E 018°11'2 3.9
2019-Aug-16 07:00N 54°56' E 018°08'5 4.3
2019-Aug-16 05:56N 54°57' E 017°60'7 3.8
2019-Aug-16 04:00N 54°58' E 017°47'2 4.4
2019-Aug-16 03:28N 54°58' E 017°43'2 3.9
2019-Aug-16 02:54N 54°58' E 017°39'2 0.8
2019-Aug-16 00:34N 54°57' E 017°40'0 3.5
2019-Aug-16 00:29N 54°56' E 017°40'1 2.5
2019-Aug-15 23:59N 54°56' E 017°42'2 4.1
2019-Aug-15 23:30N 54°55' E 017°45'3 4.4
2019-Aug-15 22:54N 54°54' E 017°50'6 5.5
2019-Aug-15 21:49N 54°54' E 017°60'3 5.0
2019-Aug-15 21:10N 54°54' E 018°05'1 5.2
2019-Aug-15 21:00N 54°53' E 018°07'3 5.6
2019-Aug-15 20:30N 54°53' E 018°12'3 6.3
2019-Aug-15 20:00N 54°53' E 018°17'3 6.6
2019-Aug-15 19:30N 54°54' E 018°23'3 6.4
2019-Aug-15 19:00N 54°54' E 018°29'3 5.1
2019-Aug-15 18:30N 54°56' E 018°31'3 5.2
2019-Aug-15 18:00N 54°58' E 018°33'3 5.5
2019-Aug-15 17:30N 55°00' E 018°35'3 5.3
2019-Aug-15 17:00N 55°03' E 018°38'3 5.2
2019-Aug-15 16:30N 55°05' E 018°40'2 4.9
2019-Aug-15 16:00N 55°07' E 018°43'3 4.8
2019-Aug-15 15:25N 55°09' E 018°47'4 3.7
2019-Aug-15 14:26N 55°11' E 018°52'0 0.6
2019-Aug-15 13:54N 55°11' E 018°52'1 2.6
2019-Aug-15 13:30N 55°10' E 018°51'2 2.8
2019-Aug-15 12:53N 55°09' E 018°48'2 2.8
2019-Aug-15 12:04N 55°08' E 018°45'0 2.4
2019-Aug-15 12:00N 55°07' E 018°45'2 2.5
2019-Aug-15 11:14N 55°06' E 018°43'1 2.2
2019-Aug-15 10:43N 55°05' E 018°41'1 2.0
2019-Aug-15 10:05N 55°05' E 018°39'0 2.0
2019-Aug-15 10:00N 55°05' E 018°39'1 1.6
2019-Aug-15 09:22N 55°05' E 018°38'1 2.6
2019-Aug-15 09:00N 55°06' E 018°37'2 2.5
2019-Aug-15 08:18N 55°07' E 018°35'2 4.0
2019-Aug-15 07:50N 55°09' E 018°34'4 4.8
2019-Aug-15 06:58N 55°13' E 018°31'3 4.4
2019-Aug-15 06:23N 55°15' E 018°28'  
Track history (hours):
 
Tides and Currents Weather Stations Pressure Air Temp Water Temp Dewpoint Dewpoint Depression Visibility Wind Speed Wind Dir Waves Ship Positions

Dar Mlodziezy

Training ship for Gdynia Maritime University, Poland.

Ship's website: http://www.am.gdynia.pl/armator/darmlodziezy.php

Last reported at 2019-Aug-24 19:55 UTC. Time now 2019-Aug-24 20:22 UTC.
Position N 54°31' E 018°34'.

Length 95 m; beam 14 m.

Type: Sailing vessel. MMSI: 261148000.

Date/timePositionNaut miles runAvg speedWind from/ knotsBaromVisibWave heightAir tempDewpointWater temp
2019-Aug-24 19:55N 54°31' E 018°34'0 0.0
2019-Aug-24 19:25N 54°31' E 018°34'0 0.0
2019-Aug-24 18:58N 54°31' E 018°34'0 0.0
2019-Aug-24 18:28N 54°31' E 018°34'0 0.0
2019-Aug-24 17:58N 54°31' E 018°34'0 0.0
2019-Aug-24 17:28N 54°31' E 018°34'0 0.0
2019-Aug-24 16:55N 54°31' E 018°34'0 0.0
2019-Aug-24 16:25N 54°31' E 018°34'0 0.0
2019-Aug-24 15:58N 54°31' E 018°34'0 0.0
2019-Aug-24 15:28N 54°31' E 018°34'0 0.0
2019-Aug-24 14:58N 54°31' E 018°34'0 0.0
2019-Aug-24 14:28N 54°31' E 018°34'0 0.0
2019-Aug-24 13:58N 54°31' E 018°34'0 0.0
2019-Aug-24 13:25N 54°31' E 018°34'0 0.0
2019-Aug-24 12:58N 54°31' E 018°34'0 0.0
2019-Aug-24 12:28N 54°31' E 018°34'0 0.0
2019-Aug-24 11:55N 54°31' E 018°34'0 0.0
2019-Aug-24 11:28N 54°31' E 018°34'0 0.0
2019-Aug-24 10:58N 54°31' E 018°34'0 0.0
2019-Aug-24 10:28N 54°31' E 018°34'0 0.0
2019-Aug-24 09:58N 54°31' E 018°34'0 0.0
2019-Aug-24 09:28N 54°31' E 018°34'0 0.0
2019-Aug-24 08:58N 54°31' E 018°34'0 0.0
2019-Aug-24 08:28N 54°31' E 018°34'0 0.0
2019-Aug-24 07:58N 54°31' E 018°34'0 0.0
2019-Aug-24 07:25N 54°31' E 018°34'0 0.0
2019-Aug-24 06:58N 54°31' E 018°34'0 0.0
2019-Aug-24 06:28N 54°31' E 018°34'0 0.0
2019-Aug-24 05:58N 54°31' E 018°34'0 0.0
2019-Aug-24 05:28N 54°31' E 018°34'0 0.1
2019-Aug-24 05:00N 54°31' E 018°34'2 4.7
2019-Aug-24 04:30N 54°32' E 018°37'3 5.1
2019-Aug-24 04:00N 54°32' E 018°42'3 7.0
2019-Aug-24 03:30N 54°33' E 018°48'4 7.1
2019-Aug-24 03:00N 54°35' E 018°52'3 6.3
2019-Aug-24 02:30N 54°38' E 018°54'3 5.6
2019-Aug-24 02:00N 54°41' E 018°56'3 5.9
2019-Aug-24 01:30N 54°43' E 018°52'3 6.0
2019-Aug-24 01:00N 54°45' E 018°49'3 6.0
2019-Aug-24 00:30N 54°48' E 018°46'3 6.1
2019-Aug-24 00:00N 54°50' E 018°42'3 6.7
2019-Aug-23 23:30N 54°53' E 018°39'3 6.8
2019-Aug-23 23:00N 54°55' E 018°35'4 7.3
2019-Aug-23 22:30N 54°58' E 018°30'3 5.4
2019-Aug-23 22:01N 54°60' E 018°28'0 0.4
2019-Aug-23 21:30N 54°60' E 018°28'0 0.8
2019-Aug-23 20:57N 54°59' E 018°28'0 0.7
2019-Aug-23 20:19N 54°59' E 018°29'0 0.7
2019-Aug-23 19:53N 54°59' E 018°29'0 0.8
2019-Aug-23 19:30N 54°58' E 018°29'0 0.9
2019-Aug-23 19:00N 54°58' E 018°29'0 0.6
2019-Aug-23 18:30N 54°58' E 018°29'0 0.7
2019-Aug-23 18:00N 54°57' E 018°29'0 0.8
2019-Aug-23 17:30N 54°57' E 018°30'0 0.7
2019-Aug-23 17:00N 54°57' E 018°30'0 0.6
2019-Aug-23 16:30N 54°56' E 018°30'0 0.7
2019-Aug-23 16:00N 54°56' E 018°29'0 0.9
2019-Aug-23 15:30N 54°56' E 018°29'0 0.7
2019-Aug-23 15:00N 54°55' E 018°29'0 0.6
2019-Aug-23 14:30N 54°55' E 018°29'0 0.7
2019-Aug-23 14:00N 54°55' E 018°29'0 0.7
2019-Aug-23 13:30N 54°54' E 018°29'0 0.7
2019-Aug-23 13:00N 54°54' E 018°29'0 0.7
2019-Aug-23 12:30N 54°53' E 018°30'0 0.9
2019-Aug-23 12:00N 54°53' E 018°30'0 0.9
2019-Aug-23 11:30N 54°53' E 018°30'0 0.8
2019-Aug-23 11:00N 54°52' E 018°30'0 0.9
2019-Aug-23 10:30N 54°52' E 018°30'0 0.8
2019-Aug-23 10:00N 54°51' E 018°29'1 1.6
2019-Aug-23 09:30N 54°52' E 018°28'2 3.1
2019-Aug-23 09:00N 54°52' E 018°25'2 3.4
2019-Aug-23 08:30N 54°53' E 018°23'2 3.8
2019-Aug-23 08:00N 54°54' E 018°20'2 4.0
2019-Aug-23 07:30N 54°55' E 018°17'3 4.9
2019-Aug-23 06:57N 54°55' E 018°12'3 5.5
2019-Aug-23 06:23N 54°55' E 018°07'3 5.1
2019-Aug-23 05:42N 54°55' E 018°00'2 5.5
2019-Aug-23 05:25N 54°56' E 017°58'3 6.0
2019-Aug-23 04:53N 54°56' E 017°52'5 6.4
2019-Aug-23 04:03N 54°56' E 017°43'0 6.8
2019-Aug-23 04:00N 54°56' E 017°42'3 6.6
2019-Aug-23 03:30N 54°56' E 017°37'3 6.1
2019-Aug-23 03:00N 54°56' E 017°31'3 6.1
2019-Aug-23 02:30N 54°57' E 017°26'3 5.8
2019-Aug-23 02:00N 54°57' E 017°21'3 6.2
2019-Aug-23 01:30N 54°57' E 017°16'3 6.4
2019-Aug-23 01:00N 54°57' E 017°10'3 5.9
2019-Aug-23 00:30N 54°57' E 017°05'3 6.3
2019-Aug-23 00:00N 54°56' E 016°59'3 6.2
2019-Aug-22 23:30N 54°56' E 016°54'3 5.7
2019-Aug-22 23:00N 54°56' E 016°49'3 5.3
2019-Aug-22 22:30N 54°56' E 016°45'1 1.8
2019-Aug-22 22:00N 54°55' E 016°44'1 2.7
2019-Aug-22 21:30N 54°55' E 016°46'2 3.2
2019-Aug-22 21:00N 54°55' E 016°49'2 3.6
2019-Aug-22 20:30N 54°55' E 016°52'2 3.7
2019-Aug-22 20:00N 54°56' E 016°55'2 4.2
2019-Aug-22 19:30N 54°56' E 016°58'3 5.0
2019-Aug-22 19:00N 54°56' E 017°03'3 5.3
2019-Aug-22 18:30N 54°57' E 017°07'3 5.6
2019-Aug-22 18:00N 54°57' E 017°12'6 5.4
2019-Aug-22 16:59N 54°58' E 017°22'62 1.6
2019-Aug-21 02:48N 55°49' E 018°23'0 0.5
2019-Aug-21 02:29N 55°49' E 018°23'0 0.5
2019-Aug-21 01:42N 55°49' E 018°22'0 0.5
2019-Aug-21 00:59N 55°49' E 018°21'0 0.5
2019-Aug-21 00:30N 55°49' E 018°21'0 0.5
2019-Aug-21 00:00N 55°49' E 018°20'0 0.5
2019-Aug-20 23:30N 55°49' E 018°20'0 0.5
2019-Aug-20 23:00N 55°49' E 018°20'0 0.6
2019-Aug-20 22:30N 55°49' E 018°19'0 0.6
2019-Aug-20 22:00N 55°49' E 018°19'0 0.6
2019-Aug-20 21:30N 55°48' E 018°19'0 0.6
2019-Aug-20 20:51N 55°48' E 018°19'0 0.6
2019-Aug-20 20:30N 55°48' E 018°19'0 0.6
2019-Aug-20 19:59N 55°47' E 018°18'1 1.8
2019-Aug-20 19:29N 55°46' E 018°18'1 1.8
2019-Aug-20 18:59N 55°46' E 018°19'1 1.5
2019-Aug-20 18:30N 55°45' E 018°20'1 2.5
2019-Aug-20 18:00N 55°44' E 018°22'1 2.6
2019-Aug-20 17:29N 55°44' E 018°24'9 2.0
2019-Aug-20 12:56N 55°37' E 018°35'6 2.6
2019-Aug-20 10:30N 55°32' E 018°41'1 2.6
2019-Aug-20 10:00N 55°31' E 018°43'0 0.2
2019-Aug-20 08:42N 55°31' E 018°43'1 4.2
2019-Aug-20 08:30N 55°31' E 018°41'2 3.7
2019-Aug-20 07:57N 55°32' E 018°38'1 3.4
2019-Aug-20 07:30N 55°33' E 018°36'2 3.6
2019-Aug-20 07:00N 55°34' E 018°33'2 3.7
2019-Aug-20 06:30N 55°35' E 018°31'2 4.1
2019-Aug-20 06:00N 55°36' E 018°28'2 3.9
2019-Aug-20 05:28N 55°38' E 018°25'6 3.4
2019-Aug-20 03:52N 55°42' E 018°19'3 3.4
2019-Aug-20 03:01N 55°44' E 018°15'0 3.6
2019-Aug-20 02:58N 55°44' E 018°15'2 3.5
2019-Aug-20 02:24N 55°46' E 018°13'2 3.4
2019-Aug-20 01:57N 55°47' E 018°12'2 4.0
2019-Aug-20 01:23N 55°49' E 018°11'51 1.9
2019-Aug-18 22:23N 54°58' E 018°19'2 3.4
2019-Aug-18 21:54N 54°57' E 018°22'1 3.7
2019-Aug-18 21:30N 54°56' E 018°24'2 4.6
2019-Aug-18 21:00N 54°55' E 018°27'2 4.4
2019-Aug-18 20:30N 54°53' E 018°29'2 5.0
2019-Aug-18 20:00N 54°52' E 018°33'2 4.4
2019-Aug-18 19:30N 54°51' E 018°36'2 3.8
2019-Aug-18 19:00N 54°50' E 018°39'2 4.2
2019-Aug-18 18:30N 54°48' E 018°42'2 4.2
2019-Aug-18 18:00N 54°47' E 018°44'3 5.2
2019-Aug-18 17:30N 54°45' E 018°48'3 5.7
2019-Aug-18 17:00N 54°43' E 018°52'3 5.8
2019-Aug-18 16:30N 54°41' E 018°56'3 6.5
2019-Aug-18 16:00N 54°38' E 018°56'4 8.7
2019-Aug-18 15:30N 54°34' E 018°52'4 8.2
2019-Aug-18 15:00N 54°32' E 018°47'4 7.8
2019-Aug-18 14:30N 54°32' E 018°40'3 5.3
2019-Aug-18 13:58N 54°31' E 018°35'0 0.1
2019-Aug-18 13:28N 54°31' E 018°35'0 0.0
2019-Aug-18 12:58N 54°31' E 018°35'0 0.0
2019-Aug-18 12:28N 54°31' E 018°35'0 0.1
2019-Aug-18 11:58N 54°31' E 018°35'0 0.0
2019-Aug-18 11:28N 54°31' E 018°35'0 0.0
2019-Aug-18 10:58N 54°31' E 018°35'0 0.0
2019-Aug-18 10:28N 54°31' E 018°35'0 0.0
2019-Aug-18 09:58N 54°31' E 018°35'0 0.0
2019-Aug-18 09:28N 54°31' E 018°35'0 0.0
2019-Aug-18 08:58N 54°31' E 018°35'0 0.0
2019-Aug-18 08:28N 54°31' E 018°35'0 0.0
2019-Aug-18 07:58N 54°31' E 018°35'0 0.0
2019-Aug-18 06:58N 54°31' E 018°35'0 0.0
2019-Aug-18 06:28N 54°31' E 018°35'0 0.0
2019-Aug-18 05:58N 54°31' E 018°35'0 0.0
2019-Aug-18 05:28N 54°31' E 018°35'0 0.0
2019-Aug-18 04:58N 54°31' E 018°35'0 0.0
2019-Aug-18 04:28N 54°31' E 018°35'0 0.0
2019-Aug-18 03:58N 54°31' E 018°35'0 0.0
2019-Aug-18 03:28N 54°31' E 018°35'0 0.0
2019-Aug-18 02:58N 54°31' E 018°35'0 0.0
2019-Aug-18 02:28N 54°31' E 018°35'0 0.0
2019-Aug-18 01:58N 54°31' E 018°35'0 0.0
2019-Aug-18 01:28N 54°31' E 018°35'0 0.0
2019-Aug-18 00:55N 54°31' E 018°35'0 0.0
2019-Aug-18 00:28N 54°31' E 018°35'0 0.0
2019-Aug-17 23:58N 54°31' E 018°35'0 0.0
2019-Aug-17 23:28N 54°31' E 018°35'0 0.0
2019-Aug-17 22:58N 54°31' E 018°35'0 0.0
2019-Aug-17 22:28N 54°31' E 018°35'0 0.0
2019-Aug-17 21:58N 54°31' E 018°35'0 0.0
2019-Aug-17 21:28N 54°31' E 018°35'0 0.0
2019-Aug-17 20:58N 54°31' E 018°35'0 0.0
2019-Aug-17 20:28N 54°31' E 018°35'0 0.0
2019-Aug-17 19:58N 54°31' E 018°35'0 0.0
2019-Aug-17 19:28N 54°31' E 018°35'0 0.0
2019-Aug-17 18:58N 54°31' E 018°35'0 0.0
2019-Aug-17 18:28N 54°31' E 018°35'0 0.0
2019-Aug-17 17:28N 54°31' E 018°35'0 0.0
2019-Aug-17 16:58N 54°31' E 018°35'0 0.0
2019-Aug-17 16:28N 54°31' E 018°35'0 0.0
2019-Aug-17 15:58N 54°31' E 018°35'0 0.0
2019-Aug-17 15:28N 54°31' E 018°35'0 0.0
2019-Aug-17 14:58N 54°31' E 018°35'0 0.0
2019-Aug-17 14:28N 54°31' E 018°35'0 0.0
2019-Aug-17 13:58N 54°31' E 018°35'0 0.0
2019-Aug-17 13:28N 54°31' E 018°35'0 0.0
2019-Aug-17 12:58N 54°31' E 018°35'0 0.0
2019-Aug-17 12:28N 54°31' E 018°35'0 0.0
2019-Aug-17 11:58N 54°31' E 018°35'0 0.0
2019-Aug-17 11:28N 54°31' E 018°35'0 0.0
2019-Aug-17 10:58N 54°31' E 018°35'0 0.0
2019-Aug-17 10:28N 54°31' E 018°35'0 0.1
2019-Aug-17 09:58N 54°31' E 018°35'0 0.0
2019-Aug-17 09:28N 54°31' E 018°35'0 0.0
2019-Aug-17 08:58N 54°31' E 018°35'0 0.0
2019-Aug-17 08:28N 54°31' E 018°35'0 0.0
2019-Aug-17 07:58N 54°31' E 018°35'0 0.0
2019-Aug-17 07:25N 54°31' E 018°35'0 0.1
2019-Aug-17 06:58N 54°31' E 018°35'0 0.0
2019-Aug-17 06:28N 54°31' E 018°35'0 0.0
2019-Aug-17 05:58N 54°31' E 018°35'0 0.0
2019-Aug-17 05:28N 54°31' E 018°35'0 0.0
2019-Aug-17 04:58N 54°31' E 018°35'0 0.0
2019-Aug-17 04:28N 54°31' E 018°35'0 0.0
2019-Aug-17 03:58N 54°31' E 018°35'0 0.0
2019-Aug-17 03:28N 54°31' E 018°35'0 0.0
2019-Aug-17 02:58N 54°31' E 018°35'0 0.0
2019-Aug-17 02:28N 54°31' E 018°35'0 0.0
2019-Aug-17 01:58N 54°31' E 018°35'0 0.0
2019-Aug-17 01:28N 54°31' E 018°35'0 0.0
2019-Aug-17 00:58N 54°31' E 018°35'0 0.0
2019-Aug-17 00:28N 54°31' E 018°35'0 0.0
2019-Aug-16 23:58N 54°31' E 018°35'0 0.0
2019-Aug-16 23:28N 54°31' E 018°35'0 0.0
2019-Aug-16 22:58N 54°31' E 018°35'0 0.0
2019-Aug-16 22:28N 54°31' E 018°35'0 0.0
2019-Aug-16 21:58N 54°31' E 018°35'0 0.0
2019-Aug-16 21:28N 54°31' E 018°35'0 0.0
2019-Aug-16 20:58N 54°31' E 018°35'0 0.0
2019-Aug-16 20:28N 54°31' E 018°35'0 0.0
2019-Aug-16 19:55N 54°31' E 018°35'0 0.1
2019-Aug-16 19:28N 54°31' E 018°35'0 0.0
2019-Aug-16 18:55N 54°31' E 018°35'0 0.0
2019-Aug-16 18:25N 54°31' E 018°35'0 0.0
2019-Aug-16 17:58N 54°31' E 018°35'0 0.1
2019-Aug-16 17:25N 54°31' E 018°35'0 1.0
2019-Aug-16 17:00N 54°31' E 018°36'2 4.5
2019-Aug-16 16:30N 54°32' E 018°39'3 5.2
2019-Aug-16 16:00N 54°32' E 018°44'3 5.4
2019-Aug-16 15:30N 54°33' E 018°48'3 6.7
2019-Aug-16 15:00N 54°35' E 018°52'4 7.2
2019-Aug-16 14:30N 54°39' E 018°55'3 5.6
2019-Aug-16 14:00N 54°41' E 018°53'4 7.3
2019-Aug-16 13:30N 54°43' E 018°48'4 7.1
2019-Aug-16 13:00N 54°45' E 018°43'4 7.3
2019-Aug-16 12:30N 54°47' E 018°38'4 7.4
2019-Aug-16 12:00N 54°49' E 018°32'3 5.4
2019-Aug-16 11:30N 54°51' E 018°28'1 1.7
2019-Aug-16 11:00N 54°51' E 018°27'2 3.5
2019-Aug-16 10:30N 54°52' E 018°24'1 2.9
2019-Aug-16 10:00N 54°53' E 018°22'1 2.0
2019-Aug-16 09:30N 54°53' E 018°21'1 2.1
2019-Aug-16 08:56N 54°54' E 018°19'1 3.0
2019-Aug-16 08:26N 54°54' E 018°17'2 3.4
2019-Aug-16 07:54N 54°55' E 018°13'2 3.8
2019-Aug-16 07:30N 54°55' E 018°11'2 3.9
2019-Aug-16 07:00N 54°56' E 018°08'5 4.3
2019-Aug-16 05:56N 54°57' E 017°60'7 3.8
2019-Aug-16 04:00N 54°58' E 017°47'2 4.4
2019-Aug-16 03:28N 54°58' E 017°43'2 3.9
2019-Aug-16 02:54N 54°58' E 017°39'2 0.8
2019-Aug-16 00:34N 54°57' E 017°40'0 3.5
2019-Aug-16 00:29N 54°56' E 017°40'1 2.5
2019-Aug-15 23:59N 54°56' E 017°42'2 4.1
2019-Aug-15 23:30N 54°55' E 017°45'3 4.4
2019-Aug-15 22:54N 54°54' E 017°50'6 5.5
2019-Aug-15 21:49N 54°54' E 017°60'3 5.0
2019-Aug-15 21:10N 54°54' E 018°05'1 5.2
2019-Aug-15 21:00N 54°53' E 018°07'3 5.6
2019-Aug-15 20:30N 54°53' E 018°12'3 6.3
2019-Aug-15 20:00N 54°53' E 018°17'3 6.6
2019-Aug-15 19:30N 54°54' E 018°23'3 6.4
2019-Aug-15 19:00N 54°54' E 018°29'3 5.1
2019-Aug-15 18:30N 54°56' E 018°31'3 5.2
2019-Aug-15 18:00N 54°58' E 018°33'3 5.5
2019-Aug-15 17:30N 55°00' E 018°35'3 5.3
2019-Aug-15 17:00N 55°03' E 018°38'3 5.2
2019-Aug-15 16:30N 55°05' E 018°40'2 4.9
2019-Aug-15 16:00N 55°07' E 018°43'3 4.8
2019-Aug-15 15:25N 55°09' E 018°47'4 3.7
2019-Aug-15 14:26N 55°11' E 018°52'0 0.6
2019-Aug-15 13:54N 55°11' E 018°52'1 2.6
2019-Aug-15 13:30N 55°10' E 018°51'2 2.8
2019-Aug-15 12:53N 55°09' E 018°48'2 2.8
2019-Aug-15 12:04N 55°08' E 018°45'0 2.4
2019-Aug-15 12:00N 55°07' E 018°45'2 2.5
2019-Aug-15 11:14N 55°06' E 018°43'1 2.2
2019-Aug-15 10:43N 55°05' E 018°41'1 2.0
2019-Aug-15 10:05N 55°05' E 018°39'0 2.0
2019-Aug-15 10:00N 55°05' E 018°39'1 1.6
2019-Aug-15 09:22N 55°05' E 018°38'1 2.6
2019-Aug-15 09:00N 55°06' E 018°37'2 2.5
2019-Aug-15 08:18N 55°07' E 018°35'2 4.0
2019-Aug-15 07:50N 55°09' E 018°34'4 4.8
2019-Aug-15 06:58N 55°13' E 018°31'3 4.4
2019-Aug-15 06:23N 55°15' E 018°28'  

Dump ship's entire track history